createdAt,value
2024-03-02T00:00:13.000Z,441.8430480957031
2024-03-02T00:01:15.000Z,442.33984375
2024-03-02T00:02:18.000Z,443.15875244140625
2024-03-02T00:03:20.000Z,442.34259033203125
2024-03-02T00:04:22.000Z,442.3843688964844
2024-03-02T00:05:24.000Z,443.1129150390625
2024-03-02T00:06:26.000Z,443.55743408203125
2024-03-02T00:07:28.000Z,443.3757019042969
2024-03-02T00:08:30.000Z,444.82086181640625
2024-03-02T00:09:33.000Z,447.09075927734375
2024-03-02T00:10:35.000Z,447.17120361328125
2024-03-02T00:11:37.000Z,446.72381591796875
2024-03-02T00:12:39.000Z,447.06500244140625
2024-03-02T00:13:41.000Z,443.6603088378906
2024-03-02T00:14:43.000Z,444.40045166015625
2024-03-02T00:15:45.000Z,444.0815734863281
2024-03-02T00:16:47.000Z,445.3902282714844
2024-03-02T00:17:50.000Z,446.5628662109375
2024-03-02T00:18:52.000Z,447.0424499511719
2024-03-02T00:19:54.000Z,448.35760498046875
2024-03-02T00:20:56.000Z,450.1182556152344
2024-03-02T00:21:58.000Z,450.53387451171875
2024-03-02T00:23:00.000Z,450.1439514160156
2024-03-02T00:24:02.000Z,447.4947204589844
2024-03-02T00:25:05.000Z,446.9089660644531
2024-03-02T00:26:07.000Z,446.762451171875
2024-03-02T00:27:09.000Z,446.6851806640625
2024-03-02T00:28:11.000Z,446.5355224609375
2024-03-02T00:29:13.000Z,447.1036071777344
2024-03-02T00:30:15.000Z,446.5331115722656
2024-03-02T00:31:18.000Z,444.5460510253906
2024-03-02T00:32:20.000Z,443.1045227050781
2024-03-02T00:33:22.000Z,442.0856018066406
2024-03-02T00:34:24.000Z,441.4847412109375
2024-03-02T00:35:26.000Z,441.8689270019531
2024-03-02T00:36:28.000Z,441.016357421875
2024-03-02T00:37:31.000Z,441.3345031738281
2024-03-02T00:38:33.000Z,442.0343933105469
2024-03-02T00:39:35.000Z,442.09356689453125
2024-03-02T00:40:37.000Z,440.4412841796875
2024-03-02T00:41:39.000Z,437.4066162109375
2024-03-02T00:42:41.000Z,436.6549377441406
2024-03-02T00:43:44.000Z,436.3168029785156
2024-03-02T00:44:46.000Z,438.1521301269531
2024-03-02T00:45:48.000Z,438.31219482421875
2024-03-02T00:46:50.000Z,437.3333435058594
2024-03-02T00:47:52.000Z,436.8985595703125
2024-03-02T00:48:54.000Z,437.1129150390625
2024-03-02T00:49:57.000Z,437.9503479003906
2024-03-02T00:50:59.000Z,438.599853515625
2024-03-02T00:52:01.000Z,439.1083984375
2024-03-02T00:53:03.000Z,438.8757629394531
2024-03-02T00:54:05.000Z,438.95074462890625
2024-03-02T00:55:07.000Z,439.8349304199219
2024-03-02T00:56:10.000Z,441.7427062988281
2024-03-02T00:57:12.000Z,443.4048767089844
2024-03-02T00:58:14.000Z,444.8696594238281
2024-03-02T00:59:16.000Z,445.0480651855469
2024-03-02T01:00:18.000Z,445.02874755859375
2024-03-02T01:01:20.000Z,443.0414123535156
2024-03-02T01:02:23.000Z,441.81195068359375
2024-03-02T01:03:25.000Z,440.2152404785156
2024-03-02T01:04:27.000Z,439.7211608886719
2024-03-02T01:05:29.000Z,437.80328369140625
2024-03-02T01:06:31.000Z,439.07452392578125
2024-03-02T01:07:34.000Z,441.10845947265625
2024-03-02T01:08:36.000Z,441.2950744628906
2024-03-02T01:09:38.000Z,441.8985900878906
2024-03-02T01:10:40.000Z,443.5302429199219
2024-03-02T01:11:42.000Z,442.7269287109375
2024-03-02T01:12:44.000Z,442.2826843261719
2024-03-02T01:13:46.000Z,441.6003723144531
2024-03-02T01:14:49.000Z,442.231689453125
2024-03-02T01:15:51.000Z,442.3519592285156
2024-03-02T01:16:53.000Z,440.4371032714844
2024-03-02T01:17:55.000Z,439.82012939453125
2024-03-02T01:18:57.000Z,438.4621887207031
2024-03-02T01:20:00.000Z,439.50347900390625
2024-03-02T01:21:02.000Z,438.76837158203125
2024-03-02T01:22:04.000Z,440.4980773925781
2024-03-02T01:23:06.000Z,439.4699401855469
2024-03-02T01:24:08.000Z,440.5022888183594
2024-03-02T01:25:10.000Z,439.3507385253906
2024-03-02T01:26:13.000Z,443.0724182128906
2024-03-02T01:27:15.000Z,443.4080505371094
2024-03-02T01:28:17.000Z,443.28741455078125
2024-03-02T01:29:19.000Z,443.0646057128906
2024-03-02T01:30:21.000Z,441.7314147949219
2024-03-02T01:31:24.000Z,441.776123046875
2024-03-02T01:32:26.000Z,440.93597412109375
2024-03-02T01:33:28.000Z,439.825927734375
2024-03-02T01:34:30.000Z,440.39105224609375
2024-03-02T01:35:32.000Z,442.9405212402344
2024-03-02T01:36:34.000Z,442.58953857421875
2024-03-02T01:37:37.000Z,441.9260559082031
2024-03-02T01:38:39.000Z,440.4639587402344
2024-03-02T01:39:41.000Z,438.3615417480469
2024-03-02T01:40:43.000Z,436.5718994140625
2024-03-02T01:41:45.000Z,437.25689697265625
2024-03-02T01:42:47.000Z,438.2134094238281
2024-03-02T01:43:49.000Z,438.82720947265625
2024-03-02T01:44:52.000Z,439.607666015625
2024-03-02T01:45:54.000Z,438.3016662597656
2024-03-02T01:46:56.000Z,439.1831359863281
2024-03-02T01:47:58.000Z,439.8662414550781
2024-03-02T01:49:00.000Z,438.73046875
2024-03-02T01:50:02.000Z,438.7994689941406
2024-03-02T01:51:04.000Z,439.8967590332031
2024-03-02T01:52:07.000Z,442.9471740722656
2024-03-02T01:53:09.000Z,442.1530456542969
2024-03-02T01:54:11.000Z,440.8221435546875
2024-03-02T01:55:13.000Z,439.4133605957031
2024-03-02T01:56:15.000Z,438.40771484375
2024-03-02T01:57:17.000Z,439.07568359375
2024-03-02T01:58:20.000Z,439.6632995605469
2024-03-02T01:59:22.000Z,438.56146240234375
2024-03-02T02:00:24.000Z,439.0190124511719
2024-03-02T02:01:26.000Z,437.49188232421875
2024-03-02T02:02:28.000Z,437.88189697265625
2024-03-02T02:03:30.000Z,438.1773376464844
2024-03-02T02:04:32.000Z,435.6634521484375
2024-03-02T02:05:35.000Z,436.669189453125
2024-03-02T02:06:37.000Z,434.4189758300781
2024-03-02T02:07:39.000Z,434.3591003417969
2024-03-02T02:08:41.000Z,435.3612060546875
2024-03-02T02:09:43.000Z,437.18438720703125
2024-03-02T02:10:45.000Z,438.0520324707031
2024-03-02T02:11:47.000Z,438.8124084472656
2024-03-02T02:12:50.000Z,441.83526611328125
2024-03-02T02:13:52.000Z,442.2587585449219
2024-03-02T02:14:54.000Z,441.8438415527344
2024-03-02T02:15:56.000Z,440.33233642578125
2024-03-02T02:16:58.000Z,438.8642272949219
2024-03-02T02:18:00.000Z,436.72637939453125
2024-03-02T02:19:03.000Z,434.3533935546875
2024-03-02T02:20:05.000Z,435.4786071777344
2024-03-02T02:21:07.000Z,434.5927734375
2024-03-02T02:22:09.000Z,436.5592956542969
2024-03-02T02:23:11.000Z,437.4453430175781
2024-03-02T02:24:13.000Z,436.13458251953125
2024-03-02T02:25:15.000Z,434.3080139160156
2024-03-02T02:26:18.000Z,432.07916259765625
2024-03-02T02:27:20.000Z,431.0804138183594
2024-03-02T02:28:22.000Z,433.94403076171875
2024-03-02T02:29:24.000Z,434.4529113769531
2024-03-02T02:30:26.000Z,433.85546875
2024-03-02T02:31:28.000Z,434.9436340332031
2024-03-02T02:32:31.000Z,436.8529968261719
2024-03-02T02:33:33.000Z,437.064453125
2024-03-02T02:34:35.000Z,435.58160400390625
2024-03-02T02:35:37.000Z,437.0045471191406
2024-03-02T02:36:39.000Z,438.55462646484375
2024-03-02T02:37:41.000Z,440.7237243652344
2024-03-02T02:38:44.000Z,441.8271789550781
2024-03-02T02:39:46.000Z,441.1465759277344
2024-03-02T02:40:48.000Z,441.0500793457031
2024-03-02T02:41:50.000Z,439.633056640625
2024-03-02T02:42:52.000Z,438.90484619140625
2024-03-02T02:43:54.000Z,437.6761474609375
2024-03-02T02:44:57.000Z,436.1752624511719
2024-03-02T02:45:59.000Z,438.1788024902344
2024-03-02T02:47:01.000Z,437.22869873046875
2024-03-02T02:48:03.000Z,437.8731994628906
2024-03-02T02:49:05.000Z,439.2703552246094
2024-03-02T02:50:07.000Z,438.8855285644531
2024-03-02T02:51:09.000Z,437.89337158203125
2024-03-02T02:52:12.000Z,438.35223388671875
2024-03-02T02:53:14.000Z,435.15277099609375
2024-03-02T02:54:16.000Z,434.0857238769531
2024-03-02T02:55:18.000Z,433.2107849121094
2024-03-02T02:56:20.000Z,435.0565490722656
2024-03-02T02:57:22.000Z,435.3152770996094
2024-03-02T02:58:25.000Z,438.8912353515625
2024-03-02T02:59:27.000Z,439.5968933105469
2024-03-02T03:00:29.000Z,438.87310791015625
2024-03-02T03:01:31.000Z,436.8161315917969
2024-03-02T03:02:33.000Z,435.6473693847656
2024-03-02T03:03:35.000Z,433.8859558105469
2024-03-02T03:04:37.000Z,435.6767578125
2024-03-02T03:05:40.000Z,436.7176818847656
2024-03-02T03:06:42.000Z,437.3946228027344
2024-03-02T03:07:44.000Z,438.1976318359375
2024-03-02T03:08:46.000Z,436.67279052734375
2024-03-02T03:09:48.000Z,436.2055358886719
2024-03-02T03:10:50.000Z,434.36322021484375
2024-03-02T03:11:52.000Z,435.4668884277344
2024-03-02T03:12:55.000Z,437.9518737792969
2024-03-02T03:13:57.000Z,438.8240661621094
2024-03-02T03:14:59.000Z,437.95550537109375
2024-03-02T03:16:01.000Z,437.3902893066406
2024-03-02T03:17:03.000Z,437.1361999511719
2024-03-02T03:18:05.000Z,437.1832580566406
2024-03-02T03:19:08.000Z,439.3301696777344
2024-03-02T03:20:10.000Z,438.3510437011719
2024-03-02T03:21:12.000Z,438.1042175292969
2024-03-02T03:22:14.000Z,436.91094970703125
2024-03-02T03:23:16.000Z,436.0698547363281
2024-03-02T03:24:18.000Z,437.9307861328125
2024-03-02T03:25:21.000Z,436.9674987792969
2024-03-02T03:26:23.000Z,436.24688720703125
2024-03-02T03:27:25.000Z,438.04071044921875
2024-03-02T03:28:27.000Z,439.41778564453125
2024-03-02T03:29:29.000Z,439.8608703613281
2024-03-02T03:30:31.000Z,440.9203186035156
2024-03-02T03:31:34.000Z,444.5633850097656
2024-03-02T03:32:36.000Z,447.26165771484375
2024-03-02T03:33:38.000Z,449.5111083984375
2024-03-02T03:34:40.000Z,450.7875671386719
2024-03-02T03:35:42.000Z,451.6495361328125
2024-03-02T03:36:44.000Z,449.25689697265625
2024-03-02T03:37:46.000Z,451.9966735839844
2024-03-02T03:38:49.000Z,451.9256286621094
2024-03-02T03:39:51.000Z,450.9795837402344
2024-03-02T03:40:53.000Z,452.11785888671875
2024-03-02T03:41:55.000Z,451.0102844238281
2024-03-02T03:42:57.000Z,450.51312255859375
2024-03-02T03:43:59.000Z,449.3449401855469
2024-03-02T03:45:01.000Z,447.46624755859375
2024-03-02T03:46:04.000Z,446.3620300292969
2024-03-02T03:47:06.000Z,445.924072265625
2024-03-02T03:48:08.000Z,445.2652587890625
2024-03-02T03:49:10.000Z,444.7003479003906
2024-03-02T03:50:12.000Z,443.725830078125
2024-03-02T03:51:14.000Z,444.3860778808594
2024-03-02T03:52:17.000Z,444.77593994140625
2024-03-02T03:53:19.000Z,444.8385009765625
2024-03-02T03:54:21.000Z,445.3927001953125
2024-03-02T03:55:23.000Z,444.59716796875
2024-03-02T03:56:25.000Z,444.9143981933594
2024-03-02T03:57:27.000Z,446.6667175292969
2024-03-02T03:58:29.000Z,446.078857421875
2024-03-02T03:59:32.000Z,442.9322509765625
2024-03-02T04:00:34.000Z,444.332763671875
2024-03-02T04:01:36.000Z,444.08966064453125
2024-03-02T04:02:38.000Z,439.9789733886719
2024-03-02T04:03:40.000Z,442.68328857421875
2024-03-02T04:04:42.000Z,444.0796813964844
2024-03-02T04:05:44.000Z,446.4551086425781
2024-03-02T04:06:47.000Z,446.9257507324219
2024-03-02T04:07:49.000Z,447.0722351074219
2024-03-02T04:08:51.000Z,446.9757385253906
2024-03-02T04:09:53.000Z,444.1637878417969
2024-03-02T04:10:55.000Z,444.1621398925781
2024-03-02T04:11:57.000Z,445.2279357910156
2024-03-02T04:13:00.000Z,445.182861328125
2024-03-02T04:14:02.000Z,445.6046142578125
2024-03-02T04:15:04.000Z,445.702880859375
2024-03-02T04:16:06.000Z,446.2216796875
2024-03-02T04:17:08.000Z,447.4753112792969
2024-03-02T04:18:10.000Z,448.29974365234375
2024-03-02T04:19:13.000Z,445.5670166015625
2024-03-02T04:20:15.000Z,444.15411376953125
2024-03-02T04:21:17.000Z,446.1307067871094
2024-03-02T04:22:19.000Z,446.8129577636719
2024-03-02T04:23:21.000Z,445.1865539550781
2024-03-02T04:24:23.000Z,445.1071472167969
2024-03-02T04:25:25.000Z,445.18255615234375
2024-03-02T04:26:28.000Z,444.65460205078125
2024-03-02T04:27:30.000Z,445.0041198730469
2024-03-02T04:28:32.000Z,443.584228515625
2024-03-02T04:29:34.000Z,442.43060302734375
2024-03-02T04:30:36.000Z,440.5876770019531
2024-03-02T04:31:38.000Z,439.9465637207031
2024-03-02T04:32:40.000Z,441.30169677734375
2024-03-02T04:33:42.000Z,442.716796875
2024-03-02T04:34:45.000Z,445.0164794921875
2024-03-02T04:35:47.000Z,445.383544921875
2024-03-02T04:36:49.000Z,442.4825134277344
2024-03-02T04:37:51.000Z,442.39862060546875
2024-03-02T04:38:53.000Z,441.568603515625
2024-03-02T04:39:55.000Z,443.4232482910156
2024-03-02T04:40:58.000Z,442.0113525390625
2024-03-02T04:42:00.000Z,446.4886474609375
2024-03-02T04:43:02.000Z,445.4764709472656
2024-03-02T04:44:04.000Z,447.18536376953125
2024-03-02T04:45:06.000Z,445.6842956542969
2024-03-02T04:46:08.000Z,445.8517761230469
2024-03-02T04:47:11.000Z,444.6731262207031
2024-03-02T04:48:13.000Z,444.1653137207031
2024-03-02T04:49:15.000Z,447.2159729003906
2024-03-02T04:50:17.000Z,447.2032470703125
2024-03-02T04:51:19.000Z,446.0063781738281
2024-03-02T04:52:21.000Z,445.4220275878906
2024-03-02T04:53:23.000Z,446.95989990234375
2024-03-02T04:54:26.000Z,449.0050964355469
2024-03-02T04:55:28.000Z,446.5941162109375
2024-03-02T04:56:30.000Z,446.9936218261719
2024-03-02T04:57:32.000Z,448.2763977050781
2024-03-02T04:58:34.000Z,447.3433837890625
2024-03-02T04:59:36.000Z,448.2940979003906
2024-03-02T05:00:39.000Z,446.31707763671875
2024-03-02T05:01:41.000Z,446.2286376953125
2024-03-02T05:02:43.000Z,446.80511474609375
2024-03-02T05:03:45.000Z,446.7262878417969
2024-03-02T05:04:47.000Z,445.98876953125
2024-03-02T05:05:49.000Z,446.8875427246094
2024-03-02T05:06:52.000Z,446.6297607421875
2024-03-02T05:07:54.000Z,447.54559326171875
2024-03-02T05:08:56.000Z,446.2521667480469
2024-03-02T05:09:58.000Z,446.4936828613281
2024-03-02T05:11:00.000Z,445.6855163574219
2024-03-02T05:12:02.000Z,450.502685546875
2024-03-02T05:13:04.000Z,452.1257629394531
2024-03-02T05:14:07.000Z,453.4979553222656
2024-03-02T05:15:09.000Z,452.6211853027344
2024-03-02T05:16:11.000Z,452.1095275878906
2024-03-02T05:17:13.000Z,450.4041748046875
2024-03-02T05:18:15.000Z,449.07733154296875
2024-03-02T05:19:17.000Z,448.8774719238281
2024-03-02T05:20:20.000Z,447.0641174316406
2024-03-02T05:21:22.000Z,444.95135498046875
2024-03-02T05:22:24.000Z,443.93585205078125
2024-03-02T05:23:26.000Z,442.1172790527344
2024-03-02T05:24:28.000Z,440.8061828613281
2024-03-02T05:25:30.000Z,440.753173828125
2024-03-02T05:26:32.000Z,439.3616027832031
2024-03-02T05:27:34.000Z,439.8079528808594
2024-03-02T05:28:37.000Z,440.8077392578125
2024-03-02T05:29:39.000Z,440.7248840332031
2024-03-02T05:30:41.000Z,439.27960205078125
2024-03-02T05:31:43.000Z,439.0340576171875
2024-03-02T05:32:45.000Z,438.79364013671875
2024-03-02T05:33:47.000Z,439.6070861816406
2024-03-02T05:34:49.000Z,441.2063293457031
2024-03-02T05:35:52.000Z,442.20416259765625
2024-03-02T05:36:54.000Z,443.5640563964844
2024-03-02T05:37:56.000Z,442.3005676269531
2024-03-02T05:38:58.000Z,441.9054870605469
2024-03-02T05:40:00.000Z,441.09747314453125
2024-03-02T05:41:02.000Z,442.2236328125
2024-03-02T05:42:05.000Z,442.58685302734375
2024-03-02T05:43:07.000Z,441.1054992675781
2024-03-02T05:44:09.000Z,438.01995849609375
2024-03-02T05:45:11.000Z,436.0010681152344
2024-03-02T05:46:13.000Z,436.12652587890625
2024-03-02T05:47:15.000Z,436.9886169433594
2024-03-02T05:48:17.000Z,436.5520324707031
2024-03-02T05:49:20.000Z,436.5536193847656
2024-03-02T05:50:22.000Z,438.88958740234375
2024-03-02T05:51:24.000Z,439.8657531738281
2024-03-02T05:52:26.000Z,442.03424072265625
2024-03-02T05:53:28.000Z,443.8924255371094
2024-03-02T05:54:30.000Z,442.65435791015625
2024-03-02T05:55:32.000Z,440.2549743652344
2024-03-02T05:56:35.000Z,440.50457763671875
2024-03-02T05:57:37.000Z,442.2198791503906
2024-03-02T05:58:39.000Z,440.7001647949219
2024-03-02T05:59:41.000Z,439.8246154785156
2024-03-02T06:00:43.000Z,439.04449462890625
2024-03-02T06:01:45.000Z,438.04254150390625
2024-03-02T06:02:47.000Z,441.82977294921875
2024-03-02T06:03:50.000Z,443.12872314453125
2024-03-02T06:04:52.000Z,443.31500244140625
2024-03-02T06:05:54.000Z,445.29864501953125
2024-03-02T06:06:56.000Z,445.3034973144531
2024-03-02T06:07:58.000Z,443.2938232421875
2024-03-02T06:09:00.000Z,442.40667724609375
2024-03-02T06:10:02.000Z,441.1946716308594
2024-03-02T06:11:05.000Z,441.0882873535156
2024-03-02T06:12:07.000Z,441.10113525390625
2024-03-02T06:13:09.000Z,442.63153076171875
2024-03-02T06:14:11.000Z,441.7045593261719
2024-03-02T06:15:13.000Z,440.934326171875
2024-03-02T06:16:15.000Z,441.0448913574219
2024-03-02T06:17:18.000Z,442.2521667480469
2024-03-02T06:18:20.000Z,443.16424560546875
2024-03-02T06:19:22.000Z,443.83197021484375
2024-03-02T06:20:24.000Z,444.58465576171875
2024-03-02T06:21:26.000Z,444.810546875
2024-03-02T06:22:28.000Z,444.7794189453125
2024-03-02T06:23:31.000Z,445.7522277832031
2024-03-02T06:24:33.000Z,446.0809631347656
2024-03-02T06:25:35.000Z,448.1733093261719
2024-03-02T06:26:37.000Z,446.2441101074219
2024-03-02T06:27:39.000Z,444.1424560546875
2024-03-02T06:28:41.000Z,442.7832946777344
2024-03-02T06:29:44.000Z,446.3154602050781
2024-03-02T06:30:46.000Z,448.83837890625
2024-03-02T06:31:48.000Z,448.1626892089844
2024-03-02T06:32:50.000Z,447.9570617675781
2024-03-02T06:33:52.000Z,448.2279052734375
2024-03-02T06:34:54.000Z,447.1603088378906
2024-03-02T06:35:57.000Z,450.6476135253906
2024-03-02T06:36:59.000Z,450.9237365722656
2024-03-02T06:38:01.000Z,449.1651611328125
2024-03-02T06:39:03.000Z,446.0743713378906
2024-03-02T06:40:05.000Z,446.49481201171875
2024-03-02T06:41:07.000Z,447.0768127441406
2024-03-02T06:42:10.000Z,448.5212097167969
2024-03-02T06:43:12.000Z,448.4356384277344
2024-03-02T06:44:14.000Z,448.9158630371094
2024-03-02T06:45:16.000Z,446.5505676269531
2024-03-02T06:46:18.000Z,447.5028381347656
2024-03-02T06:47:20.000Z,447.17022705078125
2024-03-02T06:48:22.000Z,447.57916259765625
2024-03-02T06:49:25.000Z,446.75555419921875
2024-03-02T06:50:27.000Z,445.5206604003906
2024-03-02T06:51:29.000Z,444.2337646484375
2024-03-02T06:52:31.000Z,443.8743896484375
2024-03-02T06:53:33.000Z,441.4774169921875
2024-03-02T06:54:35.000Z,441.2970886230469
2024-03-02T06:55:38.000Z,442.9636535644531
2024-03-02T06:56:40.000Z,445.10992431640625
2024-03-02T06:57:42.000Z,445.3871154785156
2024-03-02T06:58:44.000Z,444.0245056152344
2024-03-02T06:59:46.000Z,441.85943603515625
2024-03-02T07:00:48.000Z,440.9125061035156
2024-03-02T07:01:50.000Z,438.4608459472656
2024-03-02T07:02:53.000Z,441.3371276855469
2024-03-02T07:03:55.000Z,442.6806640625
2024-03-02T07:04:57.000Z,443.40875244140625
2024-03-02T07:05:59.000Z,444.0800476074219
2024-03-02T07:07:01.000Z,441.4014892578125
2024-03-02T07:08:03.000Z,439.197021484375
2024-03-02T07:09:06.000Z,440.8653564453125
2024-03-02T07:10:08.000Z,440.4909973144531
2024-03-02T07:11:10.000Z,441.8590393066406
2024-03-02T07:12:12.000Z,440.6330261230469
2024-03-02T07:13:14.000Z,439.85565185546875
2024-03-02T07:14:16.000Z,440.9974365234375
2024-03-02T07:15:18.000Z,442.7056579589844
2024-03-02T07:16:20.000Z,441.4855041503906
2024-03-02T07:17:23.000Z,441.1921691894531
2024-03-02T07:18:25.000Z,438.5638732910156
2024-03-02T07:19:27.000Z,439.7701110839844
2024-03-02T07:20:29.000Z,440.3026428222656
2024-03-02T07:21:31.000Z,440.1653747558594
2024-03-02T07:22:33.000Z,440.2487487792969
2024-03-02T07:23:36.000Z,436.5486755371094
2024-03-02T07:24:38.000Z,438.66796875
2024-03-02T07:25:40.000Z,441.48358154296875
2024-03-02T07:26:42.000Z,436.9007263183594
2024-03-02T07:27:44.000Z,434.7479553222656
2024-03-02T07:28:46.000Z,434.2271423339844
2024-03-02T07:29:49.000Z,434.0057678222656
2024-03-02T07:30:51.000Z,430.8926696777344
2024-03-02T07:31:53.000Z,430.3038024902344
2024-03-02T07:32:55.000Z,428.8473815917969
2024-03-02T07:33:57.000Z,427.5906982421875
2024-03-02T07:34:59.000Z,425.3674011230469
2024-03-02T07:36:01.000Z,424.5020446777344
2024-03-02T07:37:04.000Z,424.5726623535156
2024-03-02T07:38:06.000Z,424.90240478515625
2024-03-02T07:39:08.000Z,425.0159606933594
2024-03-02T07:40:10.000Z,428.29437255859375
2024-03-02T07:41:12.000Z,429.4393005371094
2024-03-02T07:42:14.000Z,431.07568359375
2024-03-02T07:43:16.000Z,429.2759094238281
2024-03-02T07:44:19.000Z,428.2592468261719
2024-03-02T07:45:21.000Z,429.8031311035156
2024-03-02T07:46:23.000Z,430.5090026855469
2024-03-02T07:47:25.000Z,429.406494140625
2024-03-02T07:48:27.000Z,428.8248596191406
2024-03-02T07:49:29.000Z,430.1177673339844
2024-03-02T07:50:31.000Z,430.8168029785156
2024-03-02T07:51:33.000Z,427.3476257324219
2024-03-02T07:52:36.000Z,426.48577880859375
2024-03-02T07:53:38.000Z,428.0274658203125
2024-03-02T07:54:40.000Z,430.17291259765625
2024-03-02T07:55:42.000Z,430.56878662109375
2024-03-02T07:56:44.000Z,429.00042724609375
2024-03-02T07:57:46.000Z,429.68414306640625
2024-03-02T07:58:49.000Z,430.00579833984375
2024-03-02T07:59:51.000Z,427.6582336425781
2024-03-02T08:00:53.000Z,427.112060546875
2024-03-02T08:01:55.000Z,424.1518859863281
2024-03-02T08:02:57.000Z,424.7890930175781
2024-03-02T08:03:59.000Z,424.27569580078125
2024-03-02T08:05:01.000Z,422.9315185546875
2024-03-02T08:06:04.000Z,422.0362854003906
2024-03-02T08:07:06.000Z,422.06060791015625
2024-03-02T08:08:08.000Z,423.37554931640625
2024-03-02T08:09:10.000Z,423.0259704589844
2024-03-02T08:10:12.000Z,421.9858093261719
2024-03-02T08:11:14.000Z,422.8018798828125
2024-03-02T08:12:17.000Z,423.7485656738281
2024-03-02T08:13:19.000Z,426.2702331542969
2024-03-02T08:14:21.000Z,425.80377197265625
2024-03-02T08:15:23.000Z,424.9243469238281
2024-03-02T08:16:25.000Z,424.395263671875
2024-03-02T08:17:27.000Z,424.7178955078125
2024-03-02T08:18:29.000Z,423.2427978515625
2024-03-02T08:19:32.000Z,420.9002990722656
2024-03-02T08:20:34.000Z,422.4539794921875
2024-03-02T08:21:36.000Z,422.6912841796875
2024-03-02T08:22:38.000Z,422.3501281738281
2024-03-02T08:23:40.000Z,421.5150146484375
2024-03-02T08:24:42.000Z,421.4925231933594
2024-03-02T08:25:45.000Z,419.92401123046875
2024-03-02T08:26:47.000Z,421.0334777832031
2024-03-02T08:27:49.000Z,423.7848205566406
2024-03-02T08:28:51.000Z,425.29144287109375
2024-03-02T08:29:53.000Z,423.2001037597656
2024-03-02T08:30:55.000Z,420.76397705078125
2024-03-02T08:31:58.000Z,422.360595703125
2024-03-02T08:33:00.000Z,424.5812683105469
2024-03-02T08:34:02.000Z,425.6952819824219
2024-03-02T08:35:04.000Z,422.9465026855469
2024-03-02T08:36:06.000Z,423.8547058105469
2024-03-02T08:37:08.000Z,423.9496154785156
2024-03-02T08:38:11.000Z,423.9883117675781
2024-03-02T08:39:13.000Z,424.24761962890625
2024-03-02T08:40:15.000Z,424.3669738769531
2024-03-02T08:41:17.000Z,424.25311279296875
2024-03-02T08:42:19.000Z,421.3514099121094
2024-03-02T08:43:21.000Z,421.5022277832031
2024-03-02T08:44:24.000Z,422.1953125
2024-03-02T08:45:26.000Z,420.7357482910156
2024-03-02T08:46:28.000Z,419.0810852050781
2024-03-02T08:47:30.000Z,418.5786437988281
2024-03-02T08:48:32.000Z,420.314208984375
2024-03-02T08:49:34.000Z,418.9772033691406
2024-03-02T08:50:37.000Z,419.4160461425781
2024-03-02T08:51:39.000Z,417.39739990234375
2024-03-02T08:52:41.000Z,416.443115234375
2024-03-02T08:53:43.000Z,415.1809387207031
2024-03-02T08:54:45.000Z,416.71026611328125
2024-03-02T08:55:47.000Z,417.5624084472656
2024-03-02T08:56:49.000Z,418.3745422363281
2024-03-02T08:57:52.000Z,419.7864685058594
2024-03-02T08:58:54.000Z,419.560546875
2024-03-02T08:59:56.000Z,419.5041198730469
2024-03-02T09:00:58.000Z,417.61859130859375
2024-03-02T09:02:00.000Z,417.3699951171875
2024-03-02T09:03:02.000Z,416.3333435058594
2024-03-02T09:04:04.000Z,415.5079650878906
2024-03-02T09:05:07.000Z,414.5033264160156
2024-03-02T09:06:09.000Z,416.2825012207031
2024-03-02T09:07:11.000Z,416.7926025390625
2024-03-02T09:08:13.000Z,418.1146545410156
2024-03-02T09:09:15.000Z,418.0559387207031
2024-03-02T09:10:17.000Z,417.6894226074219
2024-03-02T09:11:19.000Z,418.96893310546875
2024-03-02T09:12:22.000Z,419.3065185546875
2024-03-02T09:13:24.000Z,418.89385986328125
2024-03-02T09:14:26.000Z,418.5261535644531
2024-03-02T09:15:28.000Z,419.5218505859375
2024-03-02T09:16:30.000Z,417.2309875488281
2024-03-02T09:17:32.000Z,414.75897216796875
2024-03-02T09:18:35.000Z,416.65313720703125
2024-03-02T09:19:37.000Z,416.2829284667969
2024-03-02T09:20:39.000Z,416.7804260253906
2024-03-02T09:21:41.000Z,416.2181701660156
2024-03-02T09:22:43.000Z,416.0742492675781
2024-03-02T09:23:45.000Z,414.7209777832031
2024-03-02T09:24:47.000Z,414.32879638671875
2024-03-02T09:25:50.000Z,413.32733154296875
2024-03-02T09:26:52.000Z,411.62841796875
2024-03-02T09:27:54.000Z,409.96990966796875
2024-03-02T09:28:56.000Z,411.5252380371094
2024-03-02T09:29:58.000Z,411.22991943359375
2024-03-02T09:31:00.000Z,412.02874755859375
2024-03-02T09:32:02.000Z,413.7556457519531
2024-03-02T09:33:05.000Z,413.3831481933594
2024-03-02T09:34:07.000Z,409.64813232421875
2024-03-02T09:35:09.000Z,409.4900207519531